Time;durP1;ratioP1;P1;durP2;ratioP2;P2;SDS_P1;SDS_P2;PMS_P1;PMS_P2;Temp;Humidity;BMP_temperature;BMP_pressure;BME280_temperature;BME280_humidity;BME280_pressure;Samples;Min_cycle;Max_cycle;Signal;HPM_P1;HPM_P2
2022/07/17 00:01:47;;;;;;;4.70;4.40;;;14.40;99.90;;;;;;5052361;28;20170;-70
2022/07/17 00:04:13;;;;;;;7.27;5.50;;;14.40;99.90;;;;;;5053363;28;20257;-70
2022/07/17 00:06:38;;;;;;;5.00;4.30;;;14.30;99.90;;;;;;5054644;28;20178;-68
2022/07/17 00:09:04;;;;;;;5.37;4.83;;;14.30;99.90;;;;;;5052002;28;20310;-67
2022/07/17 00:11:30;;;;;;;5.40;4.53;;;14.30;99.90;;;;;;5070255;28;20181;-68
2022/07/17 00:13:55;;;;;;;5.30;5.00;;;14.30;99.90;;;;;;5073103;28;20589;-68
2022/07/17 00:16:21;;;;;;;5.77;5.37;;;14.30;99.90;;;;;;5056730;28;20175;-68
2022/07/17 00:18:47;;;;;;;8.97;6.07;;;14.30;99.90;;;;;;5053103;28;20269;-68
2022/07/17 00:21:12;;;;;;;6.37;5.30;;;14.30;99.90;;;;;;5066494;28;20215;-68
2022/07/17 00:23:39;;;;;;;6.33;5.83;;;14.30;99.90;;;;;;5072990;28;20740;-69
2022/07/17 00:26:04;;;;;;;5.30;4.90;;;14.20;99.90;;;;;;5059887;28;20660;-68
2022/07/17 00:28:30;;;;;;;5.50;5.00;;;14.20;99.90;;;;;;5058446;28;20228;-69
2022/07/17 00:30:56;;;;;;;7.03;4.67;;;14.20;99.90;;;;;;5073086;28;20701;-69
2022/07/17 00:33:21;;;;;;;6.07;4.97;;;14.20;99.90;;;;;;5071327;28;20170;-69
2022/07/17 00:35:47;;;;;;;5.23;4.80;;;14.20;99.90;;;;;;5072512;28;20251;-69
2022/07/17 00:38:13;;;;;;;5.50;5.03;;;14.20;99.90;;;;;;5068420;28;20203;-69
2022/07/17 00:40:39;;;;;;;6.00;5.40;;;14.10;99.90;;;;;;5051721;28;20186;-69
2022/07/17 00:43:05;;;;;;;5.43;5.03;;;14.10;99.90;;;;;;5054867;28;20185;-68
2022/07/17 00:45:30;;;;;;;8.33;4.80;;;14.10;99.90;;;;;;5072650;28;20177;-69
2022/07/17 00:47:56;;;;;;;5.53;5.13;;;14.00;99.90;;;;;;5072161;28;20206;-69
2022/07/17 00:50:41;;;;;;;5.67;5.37;;;14.00;99.90;;;;;;5052617;28;20698;-69
2022/07/17 00:53:07;;;;;;;7.10;4.87;;;13.90;99.90;;;;;;5052255;28;20171;-69
2022/07/17 00:55:33;;;;;;;5.80;4.80;;;13.80;99.90;;;;;;5071153;28;20322;-69
2022/07/17 00:58:02;;;;;;;5.83;5.00;;;13.70;99.90;;;;;;5072483;28;20194;-69
2022/07/17 01:00:28;;;;;;;6.37;5.73;;;13.60;99.90;;;;;;5052297;28;20635;-69
2022/07/17 01:02:55;;;;;;;9.57;5.20;;;13.60;99.90;;;;;;5051145;28;20269;-69
2022/07/17 01:05:21;;;;;;;5.80;5.17;;;13.50;99.90;;;;;;5068777;28;20655;-69
2022/07/17 01:07:47;;;;;;;5.97;5.47;;;13.50;99.90;;;;;;5072239;28;20194;-69
2022/07/17 01:10:16;;;;;;;6.83;5.37;;;13.40;99.90;;;;;;5054182;28;20202;-69
2022/07/17 01:12:42;;;;;;;5.63;5.23;;;13.50;99.90;;;;;;5053747;28;20269;-69
2022/07/17 01:15:09;;;;;;;6.73;5.33;;;13.50;99.90;;;;;;5052088;28;20254;-69
2022/07/17 01:17:36;;;;;;;5.80;5.30;;;13.50;99.90;;;;;;5063905;28;20198;-69
2022/07/17 01:20:03;;;;;;;7.10;5.50;;;13.40;99.90;;;;;;5071038;28;20285;-69
2022/07/17 01:22:29;;;;;;;5.80;5.30;;;13.40;99.90;;;;;;5058917;28;20183;-69
2022/07/17 01:24:55;;;;;;;5.70;5.20;;;13.40;99.90;;;;;;5051920;28;20185;-69
2022/07/17 01:27:21;;;;;;;6.47;5.00;;;13.30;99.90;;;;;;5060711;28;20178;-69
2022/07/17 01:29:46;;;;;;;5.87;5.37;;;13.20;99.90;;;;;;5070715;28;20250;-69
2022/07/17 01:32:12;;;;;;;6.93;6.27;;;13.10;99.90;;;;;;5061924;28;20213;-69
2022/07/17 01:34:38;;;;;;;8.83;6.00;;;13.10;99.90;;;;;;5051570;28;20163;-69
2022/07/17 01:37:03;;;;;;;7.00;5.60;;;13.10;99.90;;;;;;5058079;28;20638;-69
2022/07/17 01:42:13;;;;;;;10.00;6.00;;;13.10;99.90;;;;;;5065044;28;20186;-69
2022/07/17 01:44:38;;;;;;;6.13;5.37;;;13.10;99.90;;;;;;5050263;28;20175;-69
2022/07/17 01:47:04;;;;;;;6.00;5.40;;;13.10;99.90;;;;;;5056575;28;20655;-69
2022/07/17 01:49:30;;;;;;;9.27;6.37;;;13.10;99.90;;;;;;5071747;28;20212;-69
2022/07/17 01:51:59;;;;;;;5.90;5.33;;;13.10;99.90;;;;;;5068697;28;20171;-69
2022/07/17 01:54:29;;;;;;;8.63;5.97;;;13.10;99.90;;;;;;5070044;28;20174;-69
2022/07/17 01:56:55;;;;;;;9.47;6.20;;;13.10;99.90;;;;;;5069374;28;20540;-69
2022/07/17 01:59:21;;;;;;;5.37;4.97;;;13.10;99.90;;;;;;5051595;28;20194;-69
2022/07/17 02:01:47;;;;;;;6.10;4.83;;;13.10;99.90;;;;;;5050420;28;20179;-69
2022/07/17 02:04:12;;;;;;;6.43;5.30;;;13.10;99.90;;;;;;5070436;28;20178;-69
2022/07/17 02:06:38;;;;;;;9.13;5.77;;;13.10;99.90;;;;;;5070132;28;20181;-69
2022/07/17 02:09:03;;;;;;;6.10;5.50;;;13.10;99.90;;;;;;5051220;28;20199;-69
2022/07/17 02:11:29;;;;;;;6.03;5.50;;;13.00;99.90;;;;;;5050159;28;20174;-69
2022/07/17 02:13:55;;;;;;;7.90;5.70;;;13.00;99.90;;;;;;5067614;28;20231;-69
2022/07/17 02:16:20;;;;;;;7.57;5.10;;;12.90;99.90;;;;;;5071307;28;20185;-69
2022/07/17 02:18:46;;;;;;;5.53;5.13;;;12.90;99.90;;;;;;5054907;28;20237;-69
2022/07/17 02:21:11;;;;;;;7.30;5.50;;;12.80;99.90;;;;;;5056758;28;20230;-69
2022/07/17 02:23:37;;;;;;;8.23;6.10;;;12.80;99.90;;;;;;5056651;28;20171;-68
2022/07/17 02:26:03;;;;;;;5.70;5.20;;;12.70;99.90;;;;;;5051372;28;20297;-69
2022/07/17 02:28:28;;;;;;;8.97;5.50;;;12.70;99.90;;;;;;5050061;28;20549;-69
2022/07/17 02:30:54;;;;;;;6.07;5.53;;;12.70;99.90;;;;;;5055998;28;20217;-69
2022/07/17 02:33:20;;;;;;;9.37;6.50;;;12.70;99.90;;;;;;5070054;28;20170;-69
2022/07/17 02:35:45;;;;;;;6.10;5.50;;;12.70;99.90;;;;;;5066166;28;20588;-68
2022/07/17 02:38:11;;;;;;;7.80;6.10;;;12.60;99.90;;;;;;5049689;28;20206;-69
2022/07/17 02:40:36;;;;;;;5.80;5.40;;;12.60;99.90;;;;;;5052373;28;20178;-69
2022/07/17 02:43:03;;;;;;;8.70;5.53;;;12.50;99.90;;;;;;5071246;28;20174;-68
2022/07/17 02:45:28;;;;;;;6.47;5.80;;;12.50;99.90;;;;;;5072346;28;20568;-69
2022/07/17 02:47:54;;;;;;;7.07;5.93;;;12.50;99.90;;;;;;5073253;28;20213;-69
2022/07/17 02:50:21;;;;;;;6.63;5.97;;;12.50;99.90;;;;;;5073606;28;20209;-69
2022/07/17 02:52:48;;;;;;;6.83;6.13;;;12.40;99.90;;;;;;5055416;28;20226;-69
2022/07/17 02:55:15;;;;;;;8.43;6.07;;;12.30;99.90;;;;;;5057822;28;20265;-69
2022/07/17 02:57:41;;;;;;;6.50;5.90;;;12.30;99.90;;;;;;5074860;28;20416;-68
2022/07/17 03:00:09;;;;;;;6.33;5.60;;;12.20;99.90;;;;;;5070831;28;20171;-69
2022/07/17 03:02:35;;;;;;;7.37;6.00;;;12.10;99.90;;;;;;5053616;28;20181;-69
2022/07/17 03:05:01;;;;;;;8.07;6.03;;;12.10;99.90;;;;;;5054459;28;20178;-69
2022/07/17 03:07:26;;;;;;;6.23;5.83;;;12.10;99.90;;;;;;5073495;28;20202;-69
2022/07/17 03:09:52;;;;;;;6.60;6.10;;;12.10;99.90;;;;;;5072541;28;20205;-69
2022/07/17 03:12:17;;;;;;;9.07;6.07;;;12.20;99.90;;;;;;5053370;28;20167;-69
2022/07/17 03:14:43;;;;;;;7.07;6.40;;;12.20;99.90;;;;;;5062761;28;20182;-69
2022/07/17 03:17:09;;;;;;;6.63;6.13;;;12.10;99.90;;;;;;5074556;28;20234;-68
2022/07/17 03:19:34;;;;;;;10.23;6.07;;;12.20;99.90;;;;;;5067330;28;20184;-69
2022/07/17 03:22:00;;;;;;;7.80;7.07;;;12.20;99.90;;;;;;5054552;28;20174;-69
2022/07/17 03:24:26;;;;;;;6.40;5.90;;;12.20;99.90;;;;;;5058774;28;20671;-69
2022/07/17 03:26:51;;;;;;;9.07;6.00;;;12.10;99.90;;;;;;5073237;28;20182;-68
2022/07/17 03:29:17;;;;;;;6.97;5.97;;;12.10;99.90;;;;;;5069700;28;20225;-69
2022/07/17 03:31:44;;;;;;;8.13;6.17;;;12.00;99.90;;;;;;5053040;28;20710;-69
2022/07/17 03:34:09;;;;;;;7.13;6.43;;;11.90;99.90;;;;;;5053795;28;20303;-69
2022/07/17 03:36:35;;;;;;;8.67;6.83;;;11.90;99.90;;;;;;5074214;28;20253;-69
2022/07/17 03:39:01;;;;;;;7.23;6.27;;;11.90;99.90;;;;;;5072745;28;20576;-69
2022/07/17 03:41:26;;;;;;;7.53;6.30;;;12.00;99.90;;;;;;5072501;28;20178;-68
2022/07/17 03:43:52;;;;;;;8.50;6.00;;;12.00;99.90;;;;;;5072491;28;20174;-69
2022/07/17 03:46:18;;;;;;;8.53;7.27;;;12.10;99.90;;;;;;5054729;28;20684;-68
2022/07/17 03:48:43;;;;;;;8.63;6.47;;;12.00;99.90;;;;;;5052592;28;20201;-69
2022/07/17 03:51:09;;;;;;;9.33;6.40;;;12.00;99.90;;;;;;5068213;28;20198;-68
2022/07/17 03:53:34;;;;;;;11.90;5.93;;;12.00;99.90;;;;;;5073626;28;20194;-69
2022/07/17 03:56:00;;;;;;;8.73;6.20;;;11.90;99.90;;;;;;5059156;28;20183;-69
2022/07/17 03:58:26;;;;;;;6.37;5.77;;;11.90;99.90;;;;;;5053949;28;20199;-68
2022/07/17 04:00:52;;;;;;;6.43;5.73;;;11.80;99.90;;;;;;5064158;28;20691;-68
2022/07/17 04:03:17;;;;;;;6.00;5.50;;;11.70;99.90;;;;;;5072481;28;20178;-68
2022/07/17 04:05:43;;;;;;;6.23;5.53;;;11.70;99.90;;;;;;5061653;28;20179;-69
2022/07/17 04:08:08;;;;;;;10.33;6.43;;;11.80;99.90;;;;;;5058204;28;20198;-70
2022/07/17 04:10:35;;;;;;;10.47;6.37;;;11.80;99.90;;;;;;5073429;28;20237;-69
2022/07/17 04:13:01;;;;;;;6.67;6.07;;;11.80;99.90;;;;;;5069007;28;20635;-69
2022/07/17 04:18:11;;;;;;;6.73;6.23;;;11.90;99.90;;;;;;5058401;28;20209;-69
2022/07/17 04:20:36;;;;;;;12.13;7.17;;;11.90;99.90;;;;;;5073382;28;20174;-68
2022/07/17 04:23:02;;;;;;;7.73;6.87;;;11.90;99.90;;;;;;5070072;28;20182;-69
2022/07/17 04:25:28;;;;;;;6.63;6.13;;;12.00;99.90;;;;;;5053288;28;20182;-68
2022/07/17 04:27:53;;;;;;;7.50;6.67;;;12.00;99.90;;;;;;5058440;28;20201;-69
2022/07/17 04:30:19;;;;;;;9.43;7.30;;;12.20;99.90;;;;;;5069280;28;20207;-69
2022/07/17 04:32:44;;;;;;;6.87;6.37;;;12.30;99.90;;;;;;5053138;28;20603;-69
2022/07/17 04:35:10;;;;;;;7.17;6.60;;;12.30;99.90;;;;;;5051760;28;20178;-68
2022/07/17 04:37:36;;;;;;;8.90;6.50;;;12.40;99.90;;;;;;5072054;28;20201;-69
2022/07/17 04:40:01;;;;;;;10.27;7.50;;;12.40;99.90;;;;;;5071880;28;20231;-69
2022/07/17 04:42:27;;;;;;;6.93;6.33;;;12.50;99.90;;;;;;5053984;28;20265;-68
2022/07/17 04:44:52;;;;;;;7.47;6.77;;;12.60;99.90;;;;;;5051496;28;20660;-68
2022/07/17 04:47:18;;;;;;;6.63;5.70;;;12.80;99.90;;;;;;5067989;28;20205;-69
2022/07/17 04:49:44;;;;;;;7.20;5.90;;;13.00;99.90;;;;;;5071404;28;20194;-69
2022/07/17 04:52:09;;;;;;;6.20;5.63;;;13.20;99.90;;;;;;5057786;28;20257;-69
2022/07/17 04:54:35;;;;;;;6.03;5.53;;;13.30;99.90;;;;;;5051012;28;20262;-69
2022/07/17 04:57:00;;;;;;;6.30;5.47;;;13.50;99.90;;;;;;5064080;28;20174;-69
2022/07/17 04:59:26;;;;;;;8.87;6.27;;;13.80;99.90;;;;;;5071319;28;20195;-69
2022/07/17 05:01:51;;;;;;;9.13;6.00;;;14.30;99.90;;;;;;5069410;28;20585;-69
2022/07/17 05:04:17;;;;;;;7.53;5.93;;;14.70;99.90;;;;;;5071406;28;20198;-68
2022/07/17 05:06:43;;;;;;;6.20;5.60;;;15.10;99.90;;;;;;5060961;28;20611;-69
2022/07/17 05:09:08;;;;;;;6.17;5.67;;;15.50;99.90;;;;;;5052417;28;20190;-69
2022/07/17 05:11:34;;;;;;;6.07;5.57;;;15.90;99.90;;;;;;5059312;28;20175;-69
2022/07/17 05:14:00;;;;;;;5.87;5.47;;;16.40;99.90;;;;;;5070756;28;20699;-69
2022/07/17 05:16:25;;;;;;;6.10;5.43;;;16.70;99.90;;;;;;5066587;28;20179;-69
2022/07/17 05:18:51;;;;;;;7.17;5.87;;;16.90;99.90;;;;;;5050867;28;20191;-69
2022/07/17 05:21:17;;;;;;;11.43;10.73;;;17.10;99.90;;;;;;5055807;28;20174;-69
2022/07/17 05:23:42;;;;;;;13.27;9.67;;;17.30;99.90;;;;;;5070500;28;20178;-69
2022/07/17 05:26:08;;;;;;;10.40;5.77;;;17.50;99.90;;;;;;5070180;28;20193;-69
2022/07/17 05:28:33;;;;;;;8.00;5.70;;;17.70;99.90;;;;;;5050677;28;20191;-69
2022/07/17 05:30:59;;;;;;;6.27;5.73;;;18.00;99.90;;;;;;5067885;28;20208;-69
2022/07/17 05:33:25;;;;;;;5.70;5.30;;;18.20;99.90;;;;;;5070480;28;20170;-69
2022/07/17 05:35:50;;;;;;;5.20;4.80;;;18.40;99.90;;;;;;5056132;28;20182;-69
2022/07/17 05:38:16;;;;;;;6.10;5.53;;;18.60;99.90;;;;;;5051724;28;20582;-69
2022/07/17 05:40:42;;;;;;;6.20;5.60;;;18.60;99.90;;;;;;5064113;28;20178;-69
2022/07/17 05:43:08;;;;;;;6.70;6.03;;;18.50;99.90;;;;;;5070625;28;20170;-69
2022/07/17 05:45:34;;;;;;;7.27;6.27;;;18.40;99.90;;;;;;5059106;28;20179;-68
2022/07/17 05:47:59;;;;;;;7.03;6.40;;;18.30;99.90;;;;;;5050520;28;20198;-69
2022/07/17 05:50:25;;;;;;;5.70;5.23;;;18.30;99.90;;;;;;5060383;28;20197;-69
2022/07/17 05:52:50;;;;;;;6.97;5.27;;;18.40;99.90;;;;;;5061501;28;20209;-69
2022/07/17 05:55:16;;;;;;;5.33;4.90;;;18.60;99.90;;;;;;5050162;28;20185;-69
2022/07/17 05:57:42;;;;;;;7.30;5.63;;;18.70;99.90;;;;;;5055071;28;20608;-69
2022/07/17 06:00:08;;;;;;;6.27;5.10;;;19.00;99.90;;;;;;5049744;28;20183;-68
2022/07/17 06:02:34;;;;;;;5.27;4.80;;;19.40;99.90;;;;;;5055065;28;20188;-68
2022/07/17 06:04:59;;;;;;;6.07;4.80;;;19.60;99.90;;;;;;5071104;28;20178;-69
2022/07/17 06:07:25;;;;;;;5.23;4.73;;;19.90;99.90;;;;;;5067884;28;20744;-69
2022/07/17 06:09:50;;;;;;;6.83;4.53;;;19.90;99.90;;;;;;5049878;28;20206;-68
2022/07/17 06:12:16;;;;;;;7.00;4.90;;;20.10;99.90;;;;;;5052485;28;20167;-69
2022/07/17 06:14:45;;;;;;;7.43;5.00;;;20.40;99.90;;;;;;5050798;28;20254;-69
2022/07/17 06:17:11;;;;;;;5.00;4.60;;;20.60;99.90;;;;;;5050150;28;20182;-69
2022/07/17 06:19:36;;;;;;;6.03;4.80;;;20.90;99.90;;;;;;5071266;28;20221;-69
2022/07/17 06:22:02;;;;;;;5.10;4.60;;;21.10;99.90;;;;;;5051341;28;20171;-69
2022/07/17 06:24:27;;;;;;;7.30;4.45;;;21.30;99.90;;;;;;5034726;28;20623;-69
2022/07/17 06:26:53;;;;;;;5.57;4.18;;;21.60;99.90;;;;;;5032648;28;20183;-69
2022/07/17 06:29:18;;;;;;;5.43;4.88;;;21.80;99.90;;;;;;5062794;28;20610;-69
2022/07/17 06:31:44;;;;;;;7.43;4.40;;;22.00;99.90;;;;;;5049887;28;20220;-69
2022/07/17 06:34:10;;;;;;;5.38;3.95;;;22.10;99.90;;;;;;5050946;28;20175;-69
2022/07/17 06:36:35;;;;;;;6.22;4.15;;;22.30;99.90;;;;;;5050870;28;20185;-69
2022/07/17 06:39:01;;;;;;;5.53;4.60;;;22.40;99.90;;;;;;5050978;28;20195;-69
2022/07/17 06:41:26;;;;;;;5.50;4.20;;;22.40;99.90;;;;;;5051224;28;20180;-68
2022/07/17 06:43:52;;;;;;;4.32;3.90;;;22.50;99.90;;;;;;5049232;28;20171;-69
2022/07/17 06:46:17;;;;;;;4.82;4.40;;;22.60;99.90;;;;;;5049701;28;20175;-68
2022/07/17 06:48:43;;;;;;;4.68;4.28;;;22.50;99.90;;;;;;5050564;28;20194;-69
2022/07/17 06:51:09;;;;;;;6.78;4.18;;;22.50;99.90;;;;;;5049814;28;20206;-69
2022/07/17 06:53:34;;;;;;;4.47;4.10;;;22.50;99.90;;;;;;5048525;28;20661;-69
2022/07/17 06:56:00;;;;;;;6.35;4.22;;;22.50;99.90;;;;;;5051149;28;20543;-69
2022/07/17 06:58:26;;;;;;;4.82;4.40;;;22.60;99.90;;;;;;5049439;28;20214;-69
2022/07/17 07:00:52;;;;;;;5.47;4.00;;;22.70;99.90;;;;;;5061768;28;20190;-69
2022/07/17 07:03:17;;;;;;;4.75;4.32;;;22.60;99.90;;;;;;5060502;28;20182;-68
2022/07/17 07:05:43;;;;;;;4.35;4.03;;;22.70;99.90;;;;;;5069927;28;20174;-68
2022/07/17 07:08:08;;;;;;;5.35;4.57;;;22.80;99.90;;;;;;5062739;28;20233;-68
2022/07/17 07:10:34;;;;;;;4.53;4.00;;;22.90;99.90;;;;;;5049294;28;20640;-68
2022/07/17 07:12:59;;;;;;;4.40;4.00;;;23.10;99.90;;;;;;5053977;28;20265;-68
2022/07/17 07:15:25;;;;;;;4.95;3.80;;;23.30;99.90;;;;;;5063842;28;20599;-69
2022/07/17 07:17:51;;;;;;;5.80;4.47;;;23.40;99.90;;;;;;5052319;28;20744;-69
2022/07/17 07:20:17;;;;;;;4.00;3.70;;;23.60;99.90;;;;;;5070749;28;20174;-69
2022/07/17 07:22:42;;;;;;;4.78;3.70;;;23.70;99.90;;;;;;5063015;28;20182;-70
2022/07/17 07:25:08;;;;;;;4.68;3.97;;;23.90;99.90;;;;;;5050172;28;20175;-69
2022/07/17 07:27:34;;;;;;;5.00;3.80;;;24.00;99.90;;;;;;5049140;28;20201;-69
2022/07/17 07:30:00;;;;;;;4.47;3.65;;;24.30;99.90;;;;;;5050645;28;20203;-69
2022/07/17 07:32:26;;;;;;;6.28;3.95;;;24.70;99.90;;;;;;5052788;28;20636;-69
2022/07/17 07:34:51;;;;;;;4.82;3.30;;;25.00;99.90;;;;;;5053784;28;20178;-69
2022/07/17 07:37:17;;;;;;;5.97;4.15;;;25.20;99.90;;;;;;5052967;28;20640;-69
2022/07/17 07:39:43;;;;;;;4.10;3.58;;;25.30;99.90;;;;;;5054275;28;20179;-69
2022/07/17 07:42:09;;;;;;;4.05;3.42;;;25.40;99.90;;;;;;5054434;28;20257;-69
2022/07/17 07:44:35;;;;;;;5.25;3.10;;;25.60;99.90;;;;;;5052410;28;20662;-69
2022/07/17 07:47:01;;;;;;;3.75;3.40;;;25.80;99.90;;;;;;5053892;28;20167;-69
2022/07/17 07:49:27;;;;;;;4.35;3.42;;;26.00;99.90;;;;;;5053818;28;20285;-69
2022/07/17 07:51:53;;;;;;;6.32;3.63;;;26.10;99.90;;;;;;5052449;28;20252;-69
2022/07/17 07:54:19;;;;;;;7.85;3.63;;;26.10;99.90;;;;;;5052274;28;20652;-69
2022/07/17 07:56:45;;;;;;;7.80;3.67;;;26.20;99.90;;;;;;5049748;28;20550;-70
2022/07/17 07:59:10;;;;;;;4.00;3.60;;;26.20;99.90;;;;;;5041052;28;20594;-69
2022/07/17 08:01:36;;;;;;;5.15;3.55;;;26.40;99.90;;;;;;5064813;28;20178;-69
2022/07/17 08:04:01;;;;;;;4.72;3.40;;;26.70;99.90;;;;;;5058296;28;20269;-69
2022/07/17 08:06:27;;;;;;;4.07;3.67;;;27.00;99.90;;;;;;5071541;28;20178;-69
2022/07/17 08:08:52;;;;;;;5.05;3.75;;;27.30;99.90;;;;;;5059385;28;20260;-69
2022/07/17 08:11:18;;;;;;;5.53;3.28;;;27.50;99.90;;;;;;5052974;28;20206;-70
2022/07/17 08:13:44;;;;;;;5.00;3.85;;;27.80;99.90;;;;;;5071538;28;20224;-70
2022/07/17 08:16:10;;;;;;;4.18;3.78;;;28.10;99.90;;;;;;5073550;28;20260;-69
2022/07/17 08:18:36;;;;;;;4.57;3.70;;;28.40;99.90;;;;;;5057219;28;20675;-70
2022/07/17 08:21:01;;;;;;;3.63;3.20;;;28.60;99.90;;;;;;5066293;28;20214;-70
2022/07/17 08:23:27;;;;;;;4.00;3.20;;;28.90;99.90;;;;;;5070009;28;20197;-70
2022/07/17 08:25:53;;;;;;;3.30;3.00;;;28.90;99.90;;;;;;5058702;28;20175;-70
2022/07/17 08:28:18;;;;;;;4.07;3.10;;;29.00;99.90;;;;;;5060797;28;20263;-70
2022/07/17 08:30:44;;;;;;;3.50;3.20;;;29.20;99.90;;;;;;5050498;28;20356;-70
2022/07/17 08:33:10;;;;;;;3.53;2.72;;;29.30;99.90;;;;;;5053504;28;20167;-70
2022/07/17 08:35:36;;;;;;;6.93;3.28;;;29.30;99.90;;;;;;5052758;28;20209;-70
2022/07/17 08:38:03;;;;;;;3.72;3.20;;;29.30;99.90;;;;;;5051309;28;20211;-70
2022/07/17 08:40:31;;;;;;;5.00;3.13;;;29.40;99.90;;;;;;5052775;28;20179;-70
2022/07/17 08:42:59;;;;;;;5.35;2.95;;;29.50;99.90;;;;;;5052961;28;20174;-70
2022/07/17 08:45:25;;;;;;;3.78;2.90;;;29.40;99.90;;;;;;5051314;28;20178;-70
2022/07/17 08:47:53;;;;;;;4.25;3.15;;;29.50;98.40;;;;;;5052578;28;20199;-70
2022/07/17 08:50:23;;;;;;;3.70;3.30;;;29.70;99.90;;;;;;5051432;28;20206;-70
2022/07/17 08:52:50;;;;;;;4.85;3.08;;;29.80;98.20;;;;;;5052503;28;20559;-70
2022/07/17 08:55:16;;;;;;;4.78;2.80;;;29.90;96.50;;;;;;5050171;28;20263;-70
2022/07/17 08:57:44;;;;;;;3.55;2.70;;;29.90;98.00;;;;;;5052444;28;20218;-70
2022/07/17 09:00:19;;;;;;;5.97;3.08;;;30.10;97.40;;;;;;5050630;28;20232;-70
2022/07/17 09:02:55;;;;;;;3.97;2.80;;;30.20;97.20;;;;;;5052466;28;20185;-69
2022/07/17 09:05:22;;;;;;;2.90;2.33;;;30.50;96.60;;;;;;5049273;28;20206;-70
2022/07/17 09:07:48;;;;;;;5.18;3.38;;;30.60;95.60;;;;;;5064121;28;20281;-70
2022/07/17 09:10:14;;;;;;;3.78;2.90;;;30.50;95.90;;;;;;5072082;28;20289;-69
2022/07/17 09:12:40;;;;;;;3.47;2.55;;;30.50;96.30;;;;;;5061349;28;20632;-70
2022/07/17 09:15:19;;;;;;;3.40;2.88;;;30.50;96.00;;;;;;5052113;28;20179;-70
2022/07/17 09:17:51;;;;;;;4.57;2.90;;;30.50;94.60;;;;;;5062318;28;20200;-69
2022/07/17 09:20:19;;;;;;;5.65;2.90;;;30.60;93.50;;;;;;5058922;28;20175;-70
2022/07/17 09:22:58;;;;;;;4.53;3.05;;;30.40;93.80;;;;;;5052091;28;20266;-69
2022/07/17 09:25:42;;;;;;;3.83;3.00;;;30.20;94.10;;;;;;5054175;28;20170;-70
2022/07/17 09:28:12;;;;;;;6.05;2.97;;;29.90;93.70;;;;;;5062469;28;20644;-69
2022/07/17 09:30:42;;;;;;;4.18;3.33;;;29.90;95.30;;;;;;5069169;28;20202;-70
2022/07/17 09:33:13;;;;;;;3.42;3.13;;;30.10;93.30;;;;;;5051869;28;20182;-69
2022/07/17 09:35:56;;;;;;;4.57;2.83;;;30.30;94.30;;;;;;5051779;28;20175;-69
2022/07/17 09:38:30;;;;;;;3.10;2.65;;;30.40;92.60;;;;;;5062527;28;20210;-69
2022/07/17 09:41:11;;;;;;;3.63;3.25;;;29.80;93.50;;;;;;5072056;28;20182;-70
2022/07/17 09:43:44;;;;;;;5.40;2.85;;;29.80;94.40;;;;;;5057942;28;20232;-69
2022/07/17 09:46:22;;;;;;;3.92;3.10;;;29.70;93.70;;;;;;5052575;28;20516;-69
2022/07/17 09:49:09;;;;;;;5.82;3.30;;;29.60;95.20;;;;;;5062853;28;20255;-69
2022/07/17 09:51:39;;;;;;;11.98;3.28;;;29.80;92.20;;;;;;5071344;28;20206;-69
2022/07/17 09:54:07;;;;;;;7.10;3.50;;;29.70;92.00;;;;;;5054682;28;20270;-70
2022/07/17 09:56:36;;;;;;;7.10;3.25;;;29.70;92.40;;;;;;5050214;28;20171;-69
2022/07/17 09:59:03;;;;;;;5.07;2.88;;;29.90;92.30;;;;;;5064859;28;20206;-69
2022/07/17 10:01:29;;;;;;;6.50;3.78;;;29.70;94.80;;;;;;5070394;28;20227;-70
2022/07/17 10:03:55;;;;;;;2.97;2.78;;;29.50;95.00;;;;;;5057156;28;20240;-70
2022/07/17 10:06:22;;;;;;;4.50;3.63;;;29.50;93.10;;;;;;5049549;28;20171;-70
2022/07/17 10:08:48;;;;;;;3.38;3.08;;;29.70;91.80;;;;;;5059995;28;20202;-70
2022/07/17 10:11:19;;;;;;;4.07;3.25;;;29.90;94.20;;;;;;5071627;28;20285;-70
2022/07/17 10:13:46;;;;;;;5.88;3.00;;;29.80;90.40;;;;;;5060969;28;20179;-70
2022/07/17 10:16:13;;;;;;;5.35;2.80;;;29.70;92.60;;;;;;5051219;28;20174;-70
2022/07/17 10:18:41;;;;;;;4.32;3.17;;;29.90;90.70;;;;;;5058922;28;20557;-69
2022/07/17 10:21:21;;;;;;;3.70;3.00;;;29.90;90.50;;;;;;5063966;28;20167;-70
2022/07/17 10:24:08;;;;;;;5.30;3.35;;;30.10;93.00;;;;;;5050641;28;20166;-70
2022/07/17 10:26:36;;;;;;;6.68;3.53;;;30.00;90.90;;;;;;5059044;28;20182;-70
2022/07/17 10:29:03;;;;;;;3.15;2.80;;;30.20;92.70;;;;;;5053595;28;20265;-70
2022/07/17 10:31:30;;;;;;;5.38;3.20;;;29.90;91.60;;;;;;5051366;28;20205;-70
2022/07/17 10:33:59;;;;;;;5.18;2.75;;;30.00;90.70;;;;;;5050618;28;20175;-70
2022/07/17 10:36:34;;;;;;;3.90;3.03;;;30.20;90.30;;;;;;5060040;28;20201;-70
2022/07/17 10:39:14;;;;;;;5.70;3.20;;;30.60;93.40;;;;;;5067272;22;20226;-66
2022/07/17 10:41:40;;;;;;;3.85;3.28;;;31.10;90.10;;;;;;5020333;28;20184;-67
2022/07/17 10:44:06;;;;;;;3.45;3.15;;;31.30;91.40;;;;;;5017743;28;20191;-66
2022/07/17 10:46:32;;;;;;;4.25;3.83;;;31.40;90.10;;;;;;5030747;28;20183;-67
2022/07/17 10:48:57;;;;;;;5.40;3.60;;;30.80;87.40;;;;;;5030383;28;20207;-66
2022/07/17 10:51:27;;;;;;;5.05;3.20;;;30.70;90.70;;;;;;5031359;28;20496;-66
2022/07/17 10:53:58;;;;;;;3.90;3.13;;;30.80;85.20;;;;;;5026453;28;20180;-67
2022/07/17 10:56:25;;;;;;;4.55;3.40;;;30.60;85.80;;;;;;5011457;28;20172;-66
2022/07/17 10:58:51;;;;;;;4.50;3.08;;;30.30;85.40;;;;;;5014063;28;20199;-67
2022/07/17 11:01:21;;;;;;;5.35;3.20;;;30.50;91.00;;;;;;5031022;28;20179;-65
2022/07/17 11:03:52;;;;;;;4.57;3.33;;;31.00;89.10;;;;;;5028302;28;20172;-66
2022/07/17 11:06:27;;;;;;;6.47;3.42;;;31.10;91.60;;;;;;5015064;28;20168;-66
2022/07/17 11:08:54;;;;;;;3.22;3.00;;;31.40;85.10;;;;;;5016792;28;20325;-66
2022/07/17 11:11:22;;;;;;;3.72;2.70;;;31.40;84.60;;;;;;5032621;28;20199;-66
2022/07/17 11:13:48;;;;;;;6.40;3.33;;;31.50;85.10;;;;;;5033117;28;20175;-66
2022/07/17 11:16:24;;;;;;;7.32;3.00;;;31.40;83.00;;;;;;5014938;28;20179;-66
2022/07/17 11:18:51;;;;;;;5.43;2.75;;;31.30;85.20;;;;;;5014526;28;20286;-67
2022/07/17 11:21:16;;;;;;;4.28;3.15;;;31.30;88.80;;;;;;5015130;28;20202;-66
2022/07/17 11:23:52;;;;;;;6.18;3.00;;;31.10;79.10;;;;;;5014311;28;20168;-66
2022/07/17 11:26:20;;;;;;;5.22;3.60;;;30.90;83.90;;;;;;5024238;28;20230;-67
2022/07/17 11:28:47;;;;;;;5.43;3.10;;;31.00;85.60;;;;;;5033728;28;20191;-66
2022/07/17 11:31:18;;;;;;;5.15;3.10;;;31.10;82.50;;;;;;5033863;28;20432;-67
2022/07/17 11:33:50;;;;;;;3.38;3.13;;;31.00;85.60;;;;;;5033857;28;20250;-67
2022/07/17 11:36:32;;;;;;;3.85;3.00;;;30.60;78.10;;;;;;5021790;28;20259;-66
2022/07/17 11:39:10;;;;;;;3.70;3.22;;;30.50;85.60;;;;;;5014360;28;20204;-66
2022/07/17 11:41:41;;;;;;;5.50;3.22;;;30.60;79.00;;;;;;5028642;28;20270;-67
2022/07/17 11:44:10;;;;;;;3.78;3.20;;;30.50;81.80;;;;;;5031912;28;20186;-67
2022/07/17 11:46:37;;;;;;;4.55;3.25;;;30.60;81.30;;;;;;5015539;28;20551;-66
2022/07/17 11:49:04;;;;;;;3.33;3.13;;;30.70;88.00;;;;;;5014316;28;20731;-65
2022/07/17 11:51:38;;;;;;;3.00;2.80;;;30.80;81.30;;;;;;5030931;28;20207;-66
2022/07/17 11:54:06;;;;;;;4.18;2.60;;;31.00;82.30;;;;;;5033658;28;20175;-67
2022/07/17 11:56:32;;;;;;;3.60;3.30;;;31.10;87.70;;;;;;5017242;28;20180;-66
2022/07/17 11:58:58;;;;;;;5.80;3.50;;;31.40;78.00;;;;;;5013949;28;20195;-66
2022/07/17 12:01:27;;;;;;;3.83;2.90;;;31.50;81.10;;;;;;5027477;28;20283;-67
2022/07/17 12:03:59;;;;;;;4.32;3.10;;;31.50;77.30;;;;;;5033412;28;20180;-66
2022/07/17 12:06:29;;;;;;;3.97;3.60;;;31.50;78.10;;;;;;5018986;28;20275;-66
2022/07/17 12:08:55;;;;;;;3.97;3.20;;;31.60;76.70;;;;;;5013642;28;20618;-67
2022/07/17 12:11:21;;;;;;;3.08;2.72;;;32.00;81.00;;;;;;5027010;28;20203;-67
2022/07/17 12:13:47;;;;;;;4.72;2.70;;;32.20;76.80;;;;;;5022580;28;20175;-68
2022/07/17 12:16:28;;;;;;;4.68;3.13;;;32.00;80.50;;;;;;5013389;28;20175;-66
2022/07/17 12:19:03;;;;;;;3.42;3.13;;;31.80;76.80;;;;;;5018874;28;20393;-66
2022/07/17 12:21:33;;;;;;;5.22;3.28;;;31.90;83.40;;;;;;5013797;28;20186;-67
2022/07/17 12:24:06;;;;;;;6.03;2.97;;;32.40;78.80;;;;;;5024050;28;20179;-67
2022/07/17 12:26:32;;;;;;;3.60;3.05;;;32.50;74.60;;;;;;5022985;28;20188;-67
2022/07/17 12:28:59;;;;;;;5.10;3.05;;;32.70;77.60;;;;;;5013311;28;20271;-68
2022/07/17 12:31:25;;;;;;;4.40;3.35;;;32.90;76.20;;;;;;5014620;28;20202;-66
2022/07/17 12:33:53;;;;;;;5.63;2.97;;;32.60;73.80;;;;;;5013130;28;20184;-66
2022/07/17 12:36:20;;;;;;;4.38;2.90;;;32.50;83.60;;;;;;5020961;28;20175;-67
2022/07/17 12:38:45;;;;;;;2.90;2.70;;;32.50;76.30;;;;;;5032715;28;20217;-67
2022/07/17 12:41:11;;;;;;;2.88;2.60;;;32.60;77.80;;;;;;5027558;28;20184;-67
2022/07/17 12:43:37;;;;;;;4.32;3.40;;;32.30;75.70;;;;;;5012924;28;20176;-66
2022/07/17 12:46:02;;;;;;;3.97;3.40;;;32.50;73.80;;;;;;5017103;28;20180;-66
2022/07/17 12:48:28;;;;;;;5.93;2.83;;;32.30;72.50;;;;;;5032819;28;20260;-66
2022/07/17 12:50:53;;;;;;;7.93;3.03;;;32.50;75.90;;;;;;5027980;28;20207;-66